createdAt,value
2022-12-07T00:01:34.536Z,3.50
2022-12-07T00:04:06.830Z,3.50
2022-12-07T00:06:41.834Z,3.50
2022-12-07T00:09:12.672Z,3.50
2022-12-07T00:11:39.433Z,3.50
2022-12-07T00:14:11.615Z,3.40
2022-12-07T00:16:38.285Z,3.50
2022-12-07T00:19:05.555Z,3.40
2022-12-07T00:21:35.031Z,3.30
2022-12-07T00:24:03.253Z,3.30
2022-12-07T00:26:38.960Z,3.20
2022-12-07T00:29:19.806Z,3.10
2022-12-07T00:31:47.720Z,3.10
2022-12-07T00:34:18.182Z,3.00
2022-12-07T00:36:44.958Z,3.00
2022-12-07T00:39:11.611Z,3.00
2022-12-07T00:41:38.352Z,2.90
2022-12-07T00:44:05.138Z,2.90
2022-12-07T00:46:32.352Z,2.90
2022-12-07T00:48:58.996Z,2.90
2022-12-07T00:51:26.809Z,2.80
2022-12-07T00:53:53.968Z,2.70
2022-12-07T00:56:28.556Z,2.70
2022-12-07T00:58:57.500Z,2.70
2022-12-07T01:01:25.725Z,2.70
2022-12-07T01:03:52.548Z,2.60
2022-12-07T01:06:21.533Z,2.60
2022-12-07T01:08:48.427Z,2.60
2022-12-07T01:11:18.260Z,2.60
2022-12-07T01:13:45.559Z,2.60
2022-12-07T01:16:14.780Z,2.50
2022-12-07T01:18:41.916Z,2.50
2022-12-07T01:21:13.552Z,2.50
2022-12-07T01:23:40.708Z,2.50
2022-12-07T01:26:12.216Z,2.50
2022-12-07T01:28:39.580Z,2.50
2022-12-07T01:31:13.211Z,2.50
2022-12-07T01:33:40.385Z,2.50
2022-12-07T01:36:22.354Z,2.40
2022-12-07T01:38:53.391Z,2.40
2022-12-07T01:41:21.383Z,2.40
2022-12-07T01:44:09.712Z,2.40
2022-12-07T01:46:36.391Z,2.30
2022-12-07T01:49:06.244Z,2.30
2022-12-07T01:51:33.132Z,2.30
2022-12-07T01:54:00.355Z,2.20
2022-12-07T01:56:28.965Z,2.10
2022-12-07T01:58:58.164Z,2.10
2022-12-07T02:01:24.942Z,2.10
2022-12-07T02:03:52.099Z,2.10
2022-12-07T02:06:23.498Z,2.10
2022-12-07T02:08:50.204Z,2.10
2022-12-07T02:11:17.556Z,2.10
2022-12-07T02:13:46.032Z,2.10
2022-12-07T02:16:23.880Z,2.10
2022-12-07T02:19:06.758Z,2.10
2022-12-07T02:22:04.266Z,2.10
2022-12-07T02:24:53.791Z,2.00
2022-12-07T02:27:41.053Z,2.10
2022-12-07T02:30:22.082Z,2.10
2022-12-07T02:32:57.934Z,2.00
2022-12-07T02:35:35.030Z,2.10
2022-12-07T02:38:10.814Z,2.00
2022-12-07T02:41:03.588Z,2.00
2022-12-07T02:43:36.361Z,2.00
2022-12-07T02:46:07.173Z,2.10
2022-12-07T02:48:35.175Z,2.10
2022-12-07T02:51:01.896Z,2.10
2022-12-07T02:53:38.650Z,2.00
2022-12-07T02:56:22.547Z,2.00
2022-12-07T02:59:03.104Z,2.00
2022-12-07T03:02:08.479Z,2.00
2022-12-07T03:04:57.257Z,2.00
2022-12-07T03:07:40.054Z,2.00
2022-12-07T03:10:31.503Z,2.00
2022-12-07T03:13:11.021Z,1.90
2022-12-07T03:15:47.018Z,1.90
2022-12-07T03:18:17.533Z,1.90
2022-12-07T03:20:47.596Z,1.80
2022-12-07T03:23:18.273Z,1.80
2022-12-07T03:25:50.104Z,1.80
2022-12-07T03:28:22.211Z,1.80
2022-12-07T03:30:55.465Z,1.70
2022-12-07T03:33:29.127Z,1.70
2022-12-07T03:36:25.527Z,1.70
2022-12-07T03:39:20.618Z,1.70
2022-12-07T03:41:47.462Z,1.60
2022-12-07T03:44:16.496Z,1.60
2022-12-07T03:46:52.402Z,1.60
2022-12-07T03:49:49.200Z,1.60
2022-12-07T03:52:32.913Z,1.50
2022-12-07T03:55:31.507Z,1.50
2022-12-07T03:58:03.562Z,1.50
2022-12-07T04:00:30.442Z,1.50
2022-12-07T04:02:57.467Z,1.60
2022-12-07T04:05:24.583Z,1.60
2022-12-07T04:07:51.642Z,1.60
2022-12-07T04:10:18.466Z,1.60
2022-12-07T04:12:45.131Z,1.60
2022-12-07T04:15:12.346Z,1.60
2022-12-07T04:17:39.039Z,1.60
2022-12-07T04:20:07.025Z,1.60
2022-12-07T04:22:33.643Z,1.70
2022-12-07T04:25:00.231Z,1.70
2022-12-07T04:27:26.928Z,1.70
2022-12-07T04:29:53.525Z,1.70
2022-12-07T04:32:20.212Z,1.70
2022-12-07T04:34:49.353Z,1.70
2022-12-07T04:37:18.469Z,1.60
2022-12-07T04:40:19.324Z,1.70
2022-12-07T04:42:45.916Z,1.60
2022-12-07T04:45:12.545Z,1.60
2022-12-07T04:47:39.359Z,1.60
2022-12-07T04:50:06.991Z,1.60
2022-12-07T04:52:33.644Z,1.50
2022-12-07T04:55:00.344Z,1.50
2022-12-07T04:57:26.925Z,1.50
2022-12-07T04:59:53.510Z,1.50
2022-12-07T05:02:20.301Z,1.50
2022-12-07T05:04:46.898Z,1.50
2022-12-07T05:07:13.489Z,1.50
2022-12-07T05:09:40.180Z,1.50
2022-12-07T05:12:06.890Z,1.50
2022-12-07T05:14:33.597Z,1.50
2022-12-07T05:17:00.218Z,1.60
2022-12-07T05:19:27.506Z,1.50
2022-12-07T05:21:54.203Z,1.60
2022-12-07T05:24:21.049Z,1.60
2022-12-07T05:26:47.680Z,1.60
2022-12-07T05:29:16.601Z,1.60
2022-12-07T05:31:44.212Z,1.60
2022-12-07T05:34:11.010Z,1.60
2022-12-07T05:36:37.698Z,1.70
2022-12-07T05:39:04.730Z,1.70
2022-12-07T05:41:50.187Z,1.70
2022-12-07T05:44:16.903Z,1.60
2022-12-07T05:46:43.687Z,1.60
2022-12-07T05:49:10.408Z,1.50
2022-12-07T05:51:37.006Z,1.50
2022-12-07T05:54:04.148Z,1.50
2022-12-07T05:56:30.823Z,1.50
2022-12-07T05:59:16.178Z,1.50
2022-12-07T06:01:42.917Z,1.50
2022-12-07T06:04:09.665Z,1.50
2022-12-07T06:06:36.287Z,1.50
2022-12-07T06:09:04.442Z,1.50
2022-12-07T06:11:49.829Z,1.50
2022-12-07T06:14:16.434Z,1.60
2022-12-07T06:16:43.210Z,1.60
2022-12-07T06:19:10.017Z,1.70
2022-12-07T06:21:36.653Z,1.70
2022-12-07T06:24:03.829Z,1.80
2022-12-07T06:26:30.589Z,1.80
2022-12-07T06:28:57.241Z,1.80
2022-12-07T06:31:23.902Z,1.90
2022-12-07T06:33:50.573Z,2.00
2022-12-07T06:36:17.150Z,2.00
2022-12-07T06:38:43.868Z,2.00
2022-12-07T06:41:10.471Z,2.10
2022-12-07T06:43:37.188Z,2.10
2022-12-07T06:46:03.944Z,2.10
2022-12-07T06:48:30.608Z,2.20
2022-12-07T06:50:57.264Z,2.20
2022-12-07T06:53:23.904Z,2.20
2022-12-07T06:55:50.635Z,2.20
2022-12-07T06:58:18.319Z,2.20
2022-12-07T07:00:46.124Z,2.20
2022-12-07T07:03:13.003Z,2.30
2022-12-07T07:05:39.835Z,2.30
2022-12-07T07:08:22.777Z,2.30
2022-12-07T07:10:50.096Z,2.30
2022-12-07T07:13:16.739Z,2.30
2022-12-07T07:15:43.596Z,2.30
2022-12-07T07:18:10.505Z,2.40
2022-12-07T07:20:38.239Z,2.40
2022-12-07T07:23:04.910Z,2.40
2022-12-07T07:25:33.015Z,2.30
2022-12-07T07:27:59.919Z,2.40
2022-12-07T07:30:27.301Z,2.40
2022-12-07T07:32:59.326Z,2.50
2022-12-07T07:35:27.448Z,2.50
2022-12-07T07:37:54.091Z,2.50
2022-12-07T07:40:21.303Z,2.50
2022-12-07T07:42:49.531Z,2.60
2022-12-07T07:45:16.375Z,2.60
2022-12-07T07:47:43.044Z,2.60
2022-12-07T07:50:10.256Z,2.70
2022-12-07T07:52:36.977Z,2.70
2022-12-07T07:55:04.289Z,2.70
2022-12-07T07:57:31.315Z,2.70
2022-12-07T07:59:57.948Z,2.80
2022-12-07T08:02:24.767Z,2.80
2022-12-07T08:04:51.615Z,2.80
2022-12-07T08:07:18.324Z,2.90
2022-12-07T08:09:44.959Z,2.90
2022-12-07T08:12:11.594Z,3.00
2022-12-07T08:14:38.271Z,3.00
2022-12-07T08:17:05.211Z,3.00
2022-12-07T08:19:32.009Z,3.10
2022-12-07T08:21:58.631Z,3.10
2022-12-07T08:24:26.117Z,3.10
2022-12-07T08:26:52.873Z,3.10
2022-12-07T08:29:19.642Z,3.20
2022-12-07T08:31:46.536Z,3.20
2022-12-07T08:34:14.015Z,3.30
2022-12-07T08:36:41.115Z,3.30
2022-12-07T08:39:30.779Z,3.30
2022-12-07T08:41:54.723Z,3.40
2022-12-07T08:44:21.410Z,3.40
2022-12-07T08:46:53.004Z,3.40
2022-12-07T08:49:35.477Z,3.50
2022-12-07T08:52:03.966Z,3.50
2022-12-07T08:54:30.685Z,3.50
2022-12-07T08:56:59.644Z,3.60
2022-12-07T08:59:27.788Z,3.50
2022-12-07T09:01:54.649Z,3.60
2022-12-07T09:04:21.690Z,3.60
2022-12-07T09:06:48.690Z,3.60
2022-12-07T09:09:16.107Z,3.70
2022-12-07T09:11:43.172Z,3.70
2022-12-07T09:14:09.994Z,3.70
2022-12-07T09:16:36.909Z,3.80
2022-12-07T09:19:03.708Z,3.70
2022-12-07T09:21:30.646Z,3.70
2022-12-07T09:23:57.402Z,3.70
2022-12-07T09:26:24.108Z,3.70
2022-12-07T09:28:50.940Z,3.70
2022-12-07T09:31:26.042Z,3.70
2022-12-07T09:33:58.337Z,3.60
2022-12-07T09:36:26.249Z,3.60
2022-12-07T09:38:53.470Z,3.60
2022-12-07T09:41:21.932Z,3.60
2022-12-07T09:43:48.642Z,3.60
2022-12-07T09:46:19.006Z,3.60
2022-12-07T09:48:46.745Z,3.60
2022-12-07T09:51:24.039Z,3.60
2022-12-07T09:53:57.353Z,3.60
2022-12-07T09:56:24.968Z,3.70
2022-12-07T09:59:00.735Z,3.70
2022-12-07T10:01:31.302Z,3.70
2022-12-07T10:04:08.027Z,3.60
2022-12-07T10:06:34.746Z,3.60
2022-12-07T10:09:01.612Z,3.70
2022-12-07T10:11:28.631Z,3.60
2022-12-07T10:13:55.474Z,3.60
2022-12-07T10:16:25.015Z,3.60
2022-12-07T10:18:52.823Z,3.50
2022-12-07T10:21:21.838Z,3.50
2022-12-07T10:24:05.417Z,3.50
2022-12-07T10:26:36.195Z,3.50
2022-12-07T10:29:21.498Z,3.40
2022-12-07T10:31:57.045Z,3.50
2022-12-07T10:34:30.352Z,3.40
2022-12-07T10:37:18.674Z,3.40
2022-12-07T10:39:51.491Z,3.50
2022-12-07T10:42:25.620Z,3.50
2022-12-07T10:45:18.967Z,3.50
2022-12-07T10:48:01.831Z,3.50
2022-12-07T10:50:53.526Z,3.50
2022-12-07T10:53:51.084Z,3.50
2022-12-07T10:56:52.595Z,3.60
2022-12-07T10:59:26.406Z,3.70
2022-12-07T11:02:10.420Z,3.80
2022-12-07T11:04:58.232Z,3.80
2022-12-07T11:07:49.760Z,3.60
2022-12-07T11:10:33.659Z,3.60
2022-12-07T11:13:05.937Z,3.60
2022-12-07T11:16:04.573Z,3.50
2022-12-07T11:18:53.709Z,3.60
2022-12-07T11:21:59.428Z,3.70
2022-12-07T11:24:45.604Z,3.70
2022-12-07T11:27:39.426Z,3.70
2022-12-07T11:30:22.632Z,3.70
2022-12-07T11:33:05.649Z,3.70
2022-12-07T11:35:55.086Z,3.70
2022-12-07T11:38:30.065Z,3.70
2022-12-07T11:41:14.385Z,3.70
2022-12-07T11:44:05.659Z,3.70
2022-12-07T11:46:52.240Z,3.70
2022-12-07T11:49:41.426Z,3.80
2022-12-07T11:52:18.190Z,3.80
2022-12-07T11:54:46.638Z,3.80
2022-12-07T11:57:26.586Z,3.80
2022-12-07T12:00:00.593Z,3.80
2022-12-07T12:02:53.594Z,3.70
2022-12-07T12:05:23.113Z,3.80
2022-12-07T12:11:34.687Z,3.80
2022-12-07T12:17:18.103Z,3.90
2022-12-07T12:20:22.140Z,3.90
2022-12-07T12:23:23.325Z,3.90
2022-12-07T12:25:58.406Z,3.90
2022-12-07T12:28:46.806Z,4.00
2022-12-07T12:31:33.776Z,4.00
2022-12-07T12:34:03.806Z,4.00
2022-12-07T12:36:42.479Z,4.00
2022-12-07T12:39:15.790Z,4.10
2022-12-07T12:42:02.404Z,4.10
2022-12-07T12:44:34.921Z,4.10
2022-12-07T12:47:25.798Z,4.10
2022-12-07T12:50:19.641Z,4.10
2022-12-07T12:53:14.116Z,4.10
2022-12-07T12:55:43.755Z,4.10
2022-12-07T12:58:19.405Z,4.10
2022-12-07T13:00:48.663Z,4.10
2022-12-07T13:03:30.488Z,4.20
2022-12-07T13:06:27.911Z,4.20
2022-12-07T13:08:58.712Z,4.20
2022-12-07T13:11:42.715Z,4.10
2022-12-07T13:14:48.000Z,4.20
2022-12-07T13:17:33.026Z,4.20
2022-12-07T13:20:14.225Z,4.20
2022-12-07T13:22:47.636Z,4.20
2022-12-07T13:25:23.113Z,4.20
2022-12-07T13:28:09.237Z,4.10
2022-12-07T13:31:02.262Z,4.10
2022-12-07T13:33:30.173Z,4.10
2022-12-07T13:35:57.678Z,4.10
2022-12-07T13:38:33.785Z,4.10
2022-12-07T13:41:22.236Z,4.10
2022-12-07T13:43:54.585Z,4.10
2022-12-07T13:46:43.827Z,4.20
2022-12-07T13:49:28.387Z,4.10
2022-12-07T13:52:07.678Z,4.20
2022-12-07T13:54:34.757Z,4.10
2022-12-07T13:57:02.522Z,4.10
2022-12-07T13:59:31.734Z,4.10
2022-12-07T14:01:58.453Z,4.10
2022-12-07T14:04:38.238Z,4.10
2022-12-07T14:07:26.252Z,4.10
2022-12-07T14:10:01.919Z,4.10
2022-12-07T14:12:30.475Z,4.20
2022-12-07T14:14:59.138Z,4.20
2022-12-07T14:17:27.607Z,4.20
2022-12-07T14:20:02.138Z,4.20
2022-12-07T14:22:36.107Z,4.20
2022-12-07T14:25:15.387Z,4.20
2022-12-07T14:27:59.411Z,4.20
2022-12-07T14:30:31.862Z,4.20
2022-12-07T14:33:04.480Z,4.20
2022-12-07T14:35:32.966Z,4.20
2022-12-07T14:37:59.925Z,4.20
2022-12-07T14:40:29.600Z,4.20
2022-12-07T14:43:02.778Z,4.20
2022-12-07T14:45:30.104Z,4.10
2022-12-07T14:53:37.964Z,4.10
2022-12-07T14:56:06.761Z,4.10
2022-12-07T14:58:33.709Z,4.20
2022-12-07T15:01:00.978Z,4.10
2022-12-07T15:03:27.890Z,4.20
2022-12-07T15:05:54.521Z,4.20
2022-12-07T15:08:21.250Z,4.20
2022-12-07T15:10:48.031Z,4.10
2022-12-07T15:13:33.402Z,4.10
2022-12-07T15:16:00.954Z,4.10
2022-12-07T15:18:28.675Z,4.10
2022-12-07T15:20:55.432Z,4.10
2022-12-07T15:23:22.222Z,4.10
2022-12-07T15:25:50.315Z,4.10
2022-12-07T15:28:17.310Z,4.00
2022-12-07T15:30:45.010Z,4.00
2022-12-07T15:33:13.087Z,4.00
2022-12-07T15:35:48.696Z,4.00
2022-12-07T15:38:15.456Z,3.90
2022-12-07T15:40:42.249Z,3.90
2022-12-07T15:43:31.743Z,3.80
2022-12-07T15:45:58.839Z,3.80
2022-12-07T15:48:28.243Z,3.70
2022-12-07T15:51:06.801Z,3.60
2022-12-07T15:53:35.242Z,3.60
2022-12-07T15:56:02.733Z,3.60
2022-12-07T15:58:29.346Z,3.60
2022-12-07T16:00:55.984Z,3.60
2022-12-07T16:03:22.673Z,3.60
2022-12-07T16:05:53.226Z,3.50
2022-12-07T16:08:20.361Z,3.50
2022-12-07T16:10:47.548Z,3.40
2022-12-07T16:13:17.233Z,3.40
2022-12-07T16:15:44.251Z,3.40
2022-12-07T16:18:11.077Z,3.40
2022-12-07T16:20:37.892Z,3.40
2022-12-07T16:23:04.545Z,3.40
2022-12-07T16:25:31.167Z,3.50
2022-12-07T16:27:57.804Z,3.40
2022-12-07T16:30:24.504Z,3.50
2022-12-07T16:32:51.344Z,3.50
2022-12-07T16:35:18.235Z,3.50
2022-12-07T16:37:44.957Z,3.50
2022-12-07T16:40:12.591Z,3.60
2022-12-07T16:42:39.247Z,3.60
2022-12-07T16:45:06.801Z,3.60
2022-12-07T16:47:33.547Z,3.60
2022-12-07T16:50:00.411Z,3.70
2022-12-07T16:52:27.052Z,3.60
2022-12-07T16:54:53.677Z,3.50
2022-12-07T16:57:23.468Z,3.40
2022-12-07T16:59:51.044Z,3.40
2022-12-07T17:02:17.685Z,3.50
2022-12-07T17:04:44.367Z,3.50
2022-12-07T17:07:11.374Z,3.50
2022-12-07T17:09:38.082Z,3.50
2022-12-07T17:12:06.215Z,3.40
2022-12-07T17:14:51.600Z,3.50
2022-12-07T17:17:18.312Z,3.40
2022-12-07T17:19:45.114Z,3.40
2022-12-07T17:22:13.525Z,3.40
2022-12-07T17:24:40.589Z,3.30
2022-12-07T17:27:07.205Z,3.30
2022-12-07T17:29:34.000Z,3.20
2022-12-07T17:32:00.711Z,3.20
2022-12-07T17:34:27.428Z,3.20
2022-12-07T17:36:55.663Z,3.20
2022-12-07T17:39:22.441Z,3.10
2022-12-07T17:42:07.753Z,3.10
2022-12-07T17:44:34.460Z,3.00
2022-12-07T17:47:03.781Z,3.00
2022-12-07T17:49:30.817Z,2.90
2022-12-07T17:52:16.885Z,2.80
2022-12-07T17:54:43.741Z,2.80
2022-12-07T17:57:10.375Z,2.80
2022-12-07T17:59:37.167Z,2.80
2022-12-07T18:02:04.901Z,2.80
2022-12-07T18:04:32.223Z,2.80
2022-12-07T18:06:58.819Z,2.70
2022-12-07T18:09:25.722Z,2.60
2022-12-07T18:11:52.480Z,2.60
2022-12-07T18:14:19.148Z,2.60
2022-12-07T18:16:45.866Z,2.60
2022-12-07T18:19:14.764Z,2.50
2022-12-07T18:21:42.432Z,2.50
2022-12-07T18:24:11.905Z,2.50
2022-12-07T18:26:39.428Z,2.50
2022-12-07T18:29:07.295Z,2.50
2022-12-07T18:31:35.031Z,2.50
2022-12-07T18:34:12.059Z,2.50
2022-12-07T18:36:43.345Z,2.40
2022-12-07T18:39:10.110Z,2.40
2022-12-07T18:41:37.820Z,2.40
2022-12-07T18:44:05.589Z,2.40
2022-12-07T18:46:32.845Z,2.40
2022-12-07T18:49:00.608Z,2.30
2022-12-07T18:51:32.311Z,2.30
2022-12-07T18:54:01.368Z,2.20
2022-12-07T18:56:28.748Z,2.20
2022-12-07T18:59:19.325Z,2.30
2022-12-07T19:01:49.132Z,2.30
2022-12-07T19:04:16.401Z,2.20
2022-12-07T19:06:44.076Z,2.20
2022-12-07T19:09:11.732Z,2.20
2022-12-07T19:11:50.839Z,2.20
2022-12-07T19:14:22.734Z,2.10
2022-12-07T19:16:50.927Z,2.10
2022-12-07T19:19:20.092Z,2.10
2022-12-07T19:21:47.080Z,2.10
2022-12-07T19:24:17.139Z,2.00
2022-12-07T19:26:46.766Z,2.00
2022-12-07T19:29:13.389Z,2.00
2022-12-07T19:31:40.252Z,1.90
2022-12-07T19:34:11.739Z,1.90
2022-12-07T19:36:39.073Z,1.90
2022-12-07T19:39:09.777Z,1.80
2022-12-07T19:41:39.544Z,1.80
2022-12-07T19:44:22.074Z,1.80
2022-12-07T19:46:50.884Z,1.80
2022-12-07T19:49:19.220Z,1.80
2022-12-07T19:51:49.696Z,1.80
2022-12-07T19:54:19.866Z,1.80
2022-12-07T19:56:46.870Z,1.70
2022-12-07T19:59:15.402Z,1.60
2022-12-07T20:01:43.041Z,1.60
2022-12-07T20:04:19.706Z,1.60
2022-12-07T20:06:49.408Z,1.60
2022-12-07T20:09:16.210Z,1.60
2022-12-07T20:12:01.733Z,1.60
2022-12-07T20:14:29.383Z,1.60
2022-12-07T20:16:56.213Z,1.50
2022-12-07T20:19:23.048Z,1.50
2022-12-07T20:21:50.777Z,1.50
2022-12-07T20:24:20.785Z,1.50
2022-12-07T20:26:50.078Z,1.50
2022-12-07T20:29:19.647Z,1.50
2022-12-07T20:31:47.933Z,1.50
2022-12-07T20:34:14.949Z,1.40
2022-12-07T20:36:41.732Z,1.40
2022-12-07T20:39:08.800Z,1.40
2022-12-07T20:41:54.252Z,1.30
2022-12-07T20:44:21.045Z,1.30
2022-12-07T20:46:47.834Z,1.30
2022-12-07T20:49:17.019Z,1.30
2022-12-07T20:51:44.389Z,1.30
2022-12-07T20:54:11.431Z,1.20
2022-12-07T20:56:38.101Z,1.20
2022-12-07T20:59:07.415Z,1.10
2022-12-07T21:01:34.111Z,1.10
2022-12-07T21:04:02.453Z,1.10
2022-12-07T21:06:29.651Z,1.10
2022-12-07T21:08:58.609Z,1.10
2022-12-07T21:11:27.041Z,1.20
2022-12-07T21:13:53.827Z,1.10
2022-12-07T21:16:24.080Z,1.10
2022-12-07T21:18:51.227Z,1.10
2022-12-07T21:21:19.862Z,1.10
2022-12-07T21:23:58.094Z,1.10
2022-12-07T21:26:27.841Z,1.10
2022-12-07T21:28:55.960Z,1.00
2022-12-07T21:31:22.987Z,1.00
2022-12-07T21:33:50.223Z,0.90
2022-12-07T21:36:19.981Z,0.90
2022-12-07T21:38:47.582Z,0.80
2022-12-07T21:41:35.046Z,0.70
2022-12-07T21:44:04.970Z,0.70
2022-12-07T21:46:34.605Z,0.60
2022-12-07T21:49:04.630Z,0.60
2022-12-07T21:51:31.868Z,0.50
2022-12-07T21:54:00.149Z,0.50
2022-12-07T21:56:38.732Z,0.40
2022-12-07T21:59:10.599Z,0.40
2022-12-07T22:01:40.643Z,0.30
2022-12-07T22:04:08.278Z,0.30
2022-12-07T22:06:36.837Z,0.30
2022-12-07T22:09:05.744Z,0.30
2022-12-07T22:11:33.034Z,0.30
2022-12-07T22:14:18.665Z,0.40
2022-12-07T22:16:45.279Z,0.40
2022-12-07T22:19:12.101Z,0.40
2022-12-07T22:21:38.789Z,0.40
2022-12-07T22:24:05.941Z,0.40
2022-12-07T22:26:33.280Z,0.40
2022-12-07T22:29:01.493Z,0.50
2022-12-07T22:31:29.147Z,0.50
2022-12-07T22:33:55.838Z,0.50
2022-12-07T22:36:22.512Z,0.50
2022-12-07T22:38:49.122Z,0.60
2022-12-07T22:41:20.042Z,0.70
2022-12-07T22:43:46.615Z,0.60
2022-12-07T22:46:13.288Z,0.70
2022-12-07T22:48:40.042Z,0.60
2022-12-07T22:51:06.873Z,0.60
2022-12-07T22:53:33.606Z,0.70
2022-12-07T22:56:00.326Z,0.80
2022-12-07T22:58:26.979Z,0.70
2022-12-07T23:00:53.922Z,0.70
2022-12-07T23:03:20.614Z,0.70
2022-12-07T23:05:49.335Z,0.70
2022-12-07T23:08:16.919Z,0.70
2022-12-07T23:10:46.158Z,0.70
2022-12-07T23:13:33.481Z,0.60
2022-12-07T23:16:07.361Z,0.60
2022-12-07T23:18:34.468Z,0.60
2022-12-07T23:21:01.223Z,0.60
2022-12-07T23:23:27.833Z,0.50
2022-12-07T23:25:54.588Z,0.50
2022-12-07T23:28:21.202Z,0.50
2022-12-07T23:30:47.883Z,0.40
2022-12-07T23:33:14.706Z,0.40
2022-12-07T23:35:41.494Z,0.40
2022-12-07T23:38:08.084Z,0.40
2022-12-07T23:40:34.905Z,0.40
2022-12-07T23:43:01.531Z,0.40
2022-12-07T23:45:28.272Z,0.40
2022-12-07T23:47:54.858Z,0.40
2022-12-07T23:50:21.437Z,0.30
2022-12-07T23:52:48.170Z,0.30
2022-12-07T23:55:14.891Z,0.30
2022-12-07T23:57:41.481Z,0.40
